Time;durP1;ratioP1;P1;durP2;ratioP2;P2;SDS_P1;SDS_P2;PMS_P1;PMS_P2;Temp;Humidity;BMP_temperature;BMP_pressure;BME280_temperature;BME280_humidity;BME280_pressure;Samples;Min_cycle;Max_cycle;Signal;HPM_P1;HPM_P2
2023/01/17 00:01:11;;;;;;;;;16.00;11.75;;;;;7.42;66.92;98530.66;4919106;28;45543;-61
2023/01/17 00:09:51;;;;;;;;;16.25;14.50;;;;;7.42;67.37;98524.50;4920069;28;45592;-61
2023/01/17 00:12:04;;;;;;;;;11.50;11.25;;;;;7.38;67.81;98522.91;4922987;28;45449;-61
2023/01/17 00:14:29;;;;;;;;;12.25;9.25;;;;;7.29;67.45;98520.78;4916973;28;45356;-61
2023/01/17 00:16:55;;;;;;;;;11.75;9.50;;;;;7.36;67.51;98520.34;4923049;28;45300;-61
2023/01/17 01:33:52;;;;;;;;;8.00;7.00;;;;;6.67;68.65;98476.31;4910405;28;45630;-61
2023/01/17 01:36:19;;;;;;;;;10.25;7.00;;;;;6.72;68.59;98481.41;4922621;28;45693;-61
2023/01/17 01:38:44;;;;;;;;;10.50;10.50;;;;;6.66;68.23;98478.09;4923370;28;45611;-61
2023/01/17 01:41:10;;;;;;;;;10.25;7.50;;;;;6.65;68.37;98478.22;4922836;28;45327;-61
2023/01/17 01:43:49;;;;;;;;;5.50;5.50;;;;;6.65;68.43;98475.56;4910779;28;45531;-61
2023/01/17 01:46:40;;;;;;;;;7.75;7.00;;;;;6.65;68.88;98476.41;4922054;28;45580;-61
2023/01/17 01:49:18;;;;;;;;;6.75;5.25;;;;;6.62;68.65;98476.56;4921725;28;45661;-61
2023/01/17 01:51:50;;;;;;;;;10.75;8.25;;;;;6.56;68.46;98460.97;4910453;28;45524;-61
2023/01/17 01:54:21;;;;;;;;;10.25;7.25;;;;;6.58;68.65;98459.13;4922684;28;45706;-61
2023/01/17 01:56:49;;;;;;;;;11.50;8.25;;;;;6.60;68.82;98461.66;4921839;28;45492;-61
2023/01/17 01:59:19;;;;;;;;;7.25;7.25;;;;;6.61;69.15;98456.28;4921996;28;45513;-61
2023/01/17 02:01:46;;;;;;;;;6.00;6.00;;;;;6.62;69.00;98463.31;4921145;28;47397;-61
2023/01/17 07:38:10;;;;;;;;;13.25;11.50;;;;;4.45;79.36;98154.03;5145185;27;45397;-62
2023/01/17 07:40:35;;;;;;;;;17.75;15.00;;;;;4.64;78.55;98160.16;5128885;27;45534;-62
2023/01/17 07:43:00;;;;;;;;;13.00;11.25;;;;;4.80;78.85;98165.50;5122694;27;45466;-62
2023/01/17 07:45:26;;;;;;;;;12.25;12.00;;;;;4.90;78.69;98157.13;5124825;27;45463;-62
2023/01/17 07:47:52;;;;;;;;;10.00;10.00;;;;;5.06;77.84;98157.19;5136436;27;45634;-62
2023/01/17 07:50:17;;;;;;;;;17.25;11.50;;;;;5.12;77.40;98144.50;5130704;27;45515;-62
2023/01/17 07:52:48;;;;;;;;;20.50;16.25;;;;;5.25;77.70;98152.66;5128797;27;45378;-63
2023/01/17 07:55:13;;;;;;;;;14.50;13.75;;;;;5.26;76.98;98153.50;5118697;27;45583;-63
2023/01/17 07:57:38;;;;;;;;;17.00;13.25;;;;;5.28;76.34;98147.22;5123442;27;48287;-63
2023/01/17 08:00:04;;;;;;;;;14.50;12.00;;;;;5.28;76.40;98162.22;5134418;27;45557;-63
2023/01/17 08:02:30;;;;;;;;;15.50;14.50;;;;;5.27;77.04;98155.22;5135907;27;45859;-63
2023/01/17 08:04:55;;;;;;;;;14.25;12.50;;;;;5.26;77.04;98162.31;5123017;27;45486;-63
2023/01/17 08:07:20;;;;;;;;;15.50;12.00;;;;;5.26;77.22;98154.38;5133866;27;45376;-63
2023/01/17 08:09:48;;;;;;;;;8.75;8.75;;;;;5.27;76.45;98153.44;5122090;27;45375;-63
2023/01/17 08:12:14;;;;;;;;;13.25;13.25;;;;;5.29;76.32;98158.66;5128227;27;45703;-62
2023/01/17 08:14:39;;;;;;;;;16.00;14.00;;;;;5.33;76.48;98168.13;5122680;27;45475;-63
2023/01/17 08:17:06;;;;;;;;;15.75;13.00;;;;;5.33;76.23;98170.75;5126265;27;45486;-63
2023/01/17 08:19:31;;;;;;;;;18.00;13.75;;;;;5.29;76.46;98169.22;5131779;27;45687;-61
2023/01/17 08:21:57;;;;;;;;;15.50;10.00;;;;;5.28;76.13;98172.78;5128556;27;45516;-62
2023/01/17 08:24:22;;;;;;;;;13.00;10.00;;;;;5.23;76.73;98180.13;5125816;27;45585;-61
2023/01/17 08:26:47;;;;;;;;;13.50;13.25;;;;;5.24;76.53;98169.47;5126689;27;46025;-61
2023/01/17 08:29:13;;;;;;;;;15.25;14.00;;;;;5.22;75.89;98168.69;5123598;27;45479;-61
2023/01/17 08:31:39;;;;;;;;;15.00;13.00;;;;;5.24;76.13;98176.53;5127647;27;45485;-62
2023/01/17 08:34:04;;;;;;;;;14.75;14.50;;;;;5.22;75.57;98159.91;5129833;27;45783;-61
2023/01/17 08:36:30;;;;;;;;;13.50;10.75;;;;;5.22;75.47;98165.19;5124998;27;45506;-61
2023/01/17 08:38:55;;;;;;;;;15.25;15.25;;;;;5.22;76.25;98158.09;5113448;27;45452;-62
2023/01/17 08:41:22;;;;;;;;;16.50;15.00;;;;;5.28;76.96;98164.84;5114379;27;45458;-61
2023/01/17 08:43:48;;;;;;;;;15.25;14.00;;;;;5.30;76.43;98171.78;5107050;27;45546;-61
2023/01/17 08:46:13;;;;;;;;;17.50;14.00;;;;;5.32;76.24;98169.91;5104371;27;45331;-61
2023/01/17 08:48:39;;;;;;;;;14.00;14.00;;;;;5.29;75.88;98162.13;5118940;27;45607;-61
2023/01/17 08:51:04;;;;;;;;;13.25;11.75;;;;;5.34;76.10;98167.19;5113357;27;45336;-61
2023/01/17 08:53:30;;;;;;;;;17.75;15.25;;;;;5.31;75.35;98168.22;5110639;27;45293;-61
2023/01/17 08:56:00;;;;;;;;;17.00;14.75;;;;;5.30;76.17;98163.00;5114308;27;46559;-62
2023/01/17 08:58:26;;;;;;;;;15.00;12.50;;;;;5.27;76.23;98147.28;5109498;27;45802;-62
2023/01/17 09:00:52;;;;;;;;;15.00;12.25;;;;;5.32;75.71;98154.03;5106598;27;45416;-61
2023/01/17 09:03:17;;;;;;;;;15.00;11.25;;;;;5.34;75.92;98149.53;5107989;27;45598;-61
2023/01/17 09:05:43;;;;;;;;;13.00;10.75;;;;;5.35;75.62;98145.94;5113851;27;45470;-62
2023/01/17 09:08:08;;;;;;;;;14.50;14.00;;;;;5.31;75.47;98147.06;5104476;27;45602;-61
2023/01/17 09:10:34;;;;;;;;;18.25;13.25;;;;;5.31;75.94;98157.66;5116714;27;46153;-62
2023/01/17 09:12:59;;;;;;;;;17.00;14.00;;;;;5.31;75.54;98149.72;5106673;27;45448;-61
2023/01/17 09:15:24;;;;;;;;;14.50;11.25;;;;;5.30;75.62;98153.28;5108607;27;45608;-61
2023/01/17 09:17:54;;;;;;;;;12.75;12.75;;;;;5.28;76.12;98146.34;5107882;27;45502;-62
2023/01/17 09:20:19;;;;;;;;;15.75;13.75;;;;;5.31;75.24;98148.84;5112878;27;45449;-61
2023/01/17 09:22:44;;;;;;;;;15.25;15.25;;;;;5.34;75.62;98156.59;5103978;27;46075;-61
2023/01/17 09:25:10;;;;;;;;;17.00;15.25;;;;;5.34;75.54;98146.88;5113690;27;45494;-61
2023/01/17 09:27:35;;;;;;;;;17.50;12.25;;;;;5.40;76.08;98148.38;5106543;27;45459;-61
2023/01/17 09:30:01;;;;;;;;;10.75;10.75;;;;;5.39;75.82;98144.00;5108503;27;45422;-61
2023/01/17 09:32:26;;;;;;;;;13.25;11.75;;;;;5.43;75.63;98156.16;5113114;27;45685;-61
2023/01/17 09:34:51;;;;;;;;;16.75;13.00;;;;;5.41;75.64;98149.22;5117897;27;45769;-62
2023/01/17 09:37:17;;;;;;;;;9.50;9.00;;;;;5.46;75.18;98152.47;5107992;27;45597;-61
2023/01/17 09:39:42;;;;;;;;;14.25;11.25;;;;;5.43;75.00;98152.63;5111156;27;45568;-62
2023/01/17 09:42:20;;;;;;;;;9.25;7.50;;;;;5.44;75.44;98154.34;5106424;27;45575;-61
2023/01/17 09:44:50;;;;;;;;;13.00;10.25;;;;;5.49;76.08;98169.03;5111135;27;46021;-62
2023/01/17 09:47:34;;;;;;;;;9.50;9.25;;;;;5.51;75.74;98161.88;5118707;27;45755;-62
2023/01/17 09:50:29;;;;;;;;;13.75;10.00;;;;;5.54;75.27;98163.50;5103044;27;45438;-62
2023/01/17 09:53:01;;;;;;;;;11.50;9.25;;;;;5.54;75.42;98161.69;5111950;27;45367;-62
2023/01/17 09:55:48;;;;;;;;;6.50;6.00;;;;;5.59;75.64;98171.19;5101785;27;45305;-62
2023/01/17 09:58:26;;;;;;;;;13.00;8.00;;;;;5.60;75.31;98170.25;5111452;27;45450;-61
2023/01/17 10:01:33;;;;;;;;;14.75;10.50;;;;;5.63;74.25;98173.59;5107931;27;45332;-62
2023/01/17 10:04:20;;;;;;;;;13.50;10.75;;;;;5.63;74.86;98178.03;5103612;27;45379;-61
2023/01/17 10:07:01;;;;;;;;;10.00;10.00;;;;;5.63;74.76;98184.19;5106309;27;45380;-62
2023/01/17 10:09:32;;;;;;;;;13.00;9.25;;;;;5.64;75.32;98187.69;5114232;27;45777;-62
2023/01/17 10:12:13;;;;;;;;;12.50;10.50;;;;;5.68;75.04;98189.22;5106859;27;45429;-61
2023/01/17 10:15:01;;;;;;;;;10.50;9.50;;;;;5.72;74.85;98193.44;5107693;27;45606;-61
2023/01/17 10:18:04;;;;;;;;;14.50;11.50;;;;;5.71;74.61;98191.72;5100114;27;45950;-59
2023/01/17 10:20:32;;;;;;;;;8.50;8.50;;;;;5.70;74.90;98190.88;5106674;27;45408;-59
2023/01/17 10:23:11;;;;;;;;;10.00;7.50;;;;;5.71;74.80;98192.59;5104006;27;45499;-59
2023/01/17 10:25:46;;;;;;;;;9.50;8.75;;;;;5.71;74.51;98186.41;5105349;27;45404;-59
2023/01/17 10:28:25;;;;;;;;;14.25;10.00;;;;;5.76;75.17;98197.59;5115542;27;47096;-59
2023/01/17 10:30:57;;;;;;;;;7.00;7.00;;;;;5.70;74.67;98184.72;5109948;27;45713;-59
2023/01/17 10:33:36;;;;;;;;;9.00;9.00;;;;;5.80;75.34;98188.59;5106633;27;45517;-62
2023/01/17 10:36:09;;;;;;;;;13.25;9.25;;;;;5.82;74.21;98189.34;5105323;27;45426;-62
2023/01/17 10:38:37;;;;;;;;;10.00;9.00;;;;;5.82;75.07;98183.22;5103352;27;45475;-62
2023/01/17 10:41:08;;;;;;;;;9.25;8.50;;;;;5.84;74.69;98192.75;5115184;27;45422;-61
2023/01/17 10:43:51;;;;;;;;;6.00;5.50;;;;;5.85;74.56;98189.19;5112252;27;45291;-62
2023/01/17 10:46:40;;;;;;;;;9.75;9.00;;;;;5.85;74.58;98198.94;5106253;27;45526;-61
2023/01/17 10:49:17;;;;;;;;;10.00;10.00;;;;;5.81;74.93;98184.13;5105075;27;45641;-61
2023/01/17 10:52:11;;;;;;;;;11.50;9.00;;;;;5.86;74.39;98190.03;5105057;27;45333;-61
2023/01/17 10:54:50;;;;;;;;;6.50;6.00;;;;;5.87;74.70;98192.59;5107965;27;45503;-61
2023/01/17 10:57:20;;;;;;;;;10.00;7.00;;;;;5.94;74.26;98193.13;5109134;27;45766;-61
2023/01/17 10:59:45;;;;;;;;;7.50;7.50;;;;;5.98;75.05;98180.59;5102325;27;45429;-62
2023/01/17 11:02:28;;;;;;;;;8.50;8.50;;;;;6.00;74.84;98174.28;5128337;27;45812;-61
2023/01/17 11:04:56;;;;;;;;;14.75;10.50;;;;;6.05;74.48;98174.06;5103775;27;45603;-61
2023/01/17 11:07:24;;;;;;;;;9.75;9.75;;;;;6.04;74.10;98170.53;5117419;27;45481;-61
2023/01/17 11:09:52;;;;;;;;;15.00;12.25;;;;;6.04;74.07;98173.19;5111049;27;46384;-61
2023/01/17 11:12:31;;;;;;;;;12.75;12.25;;;;;6.09;74.71;98167.63;5111224;27;45525;-61
2023/01/17 11:15:09;;;;;;;;;14.25;13.50;;;;;6.13;74.15;98161.22;5105197;27;45359;-61
2023/01/17 11:17:47;;;;;;;;;14.50;13.00;;;;;6.12;74.49;98151.56;5103379;27;45632;-62
2023/01/17 11:20:31;;;;;;;;;14.25;10.75;;;;;6.15;74.03;98161.13;5117482;27;46126;-61
2023/01/17 11:23:11;;;;;;;;;14.25;10.25;;;;;6.15;74.53;98158.47;5098613;27;45401;-62
2023/01/17 11:25:37;;;;;;;;;9.00;9.00;;;;;6.15;74.49;98151.41;5113810;27;45291;-62
2023/01/17 11:28:06;;;;;;;;;10.50;10.25;;;;;6.19;74.11;98155.59;5103629;27;45602;-61
2023/01/17 11:30:32;;;;;;;;;12.50;11.00;;;;;6.24;74.05;98156.19;5102747;27;45987;-62
2023/01/17 11:33:05;;;;;;;;;14.75;11.50;;;;;6.25;74.32;98157.91;5111181;27;45518;-62
2023/01/17 11:35:33;;;;;;;;;12.50;10.75;;;;;6.25;73.57;98152.59;5116641;27;45341;-61
2023/01/17 11:38:10;;;;;;;;;14.00;11.50;;;;;6.26;73.35;98151.63;5113485;27;46022;-61
2023/01/17 11:40:39;;;;;;;;;13.25;9.50;;;;;6.25;73.56;98147.31;5102149;27;46343;-62
2023/01/17 11:43:10;;;;;;;;;17.75;14.00;;;;;6.25;74.36;98151.75;5089565;27;45898;-61
2023/01/17 11:45:37;;;;;;;;;14.25;12.25;;;;;6.23;73.56;98140.38;5091934;27;45483;-62
2023/01/17 11:48:11;;;;;;;;;11.50;10.00;;;;;6.24;73.78;98137.63;5098370;27;45944;-61
2023/01/17 11:50:52;;;;;;;;;9.75;6.50;;;;;6.21;73.67;98143.09;5094450;27;46130;-61
2023/01/17 11:53:25;;;;;;;;;13.00;12.75;;;;;6.24;74.00;98142.09;5092128;27;45545;-62
2023/01/17 11:55:54;;;;;;;;;12.75;10.50;;;;;6.20;73.78;98138.75;5093829;27;45802;-61
2023/01/17 11:58:20;;;;;;;;;9.00;9.00;;;;;6.24;73.41;98132.34;5086564;27;45534;-61
2023/01/17 12:00:53;;;;;;;;;15.50;14.00;;;;;6.25;73.75;98128.75;5111472;27;45450;-61
2023/01/17 12:03:43;;;;;;;;;11.50;9.75;;;;;6.34;73.57;98135.31;5102782;27;45609;-61
2023/01/17 12:06:28;;;;;;;;;14.00;12.25;;;;;6.34;73.58;98130.03;5117531;27;45464;-61
2023/01/17 12:09:22;;;;;;;;;15.00;13.50;;;;;6.27;73.54;98115.44;5092807;27;45446;-61
2023/01/17 12:15:32;;;;;;;;;10.75;10.75;;;;;6.41;73.27;98111.97;5107176;27;45689;-62
2023/01/17 12:18:32;;;;;;;;;10.25;10.25;;;;;6.45;74.04;98121.47;5106247;27;45427;-62
2023/01/17 12:21:25;;;;;;;;;10.00;9.75;;;;;6.42;73.56;98121.66;5109301;27;45947;-62
2023/01/17 12:24:04;;;;;;;;;11.00;9.00;;;;;6.38;73.03;98113.03;5103000;27;48520;-59
2023/01/17 12:26:39;;;;;;;;;11.25;10.75;;;;;6.33;73.65;98112.41;5104725;27;45607;-59
2023/01/17 12:29:31;;;;;;;;;18.50;15.00;;;;;6.35;73.24;98113.19;5100819;27;45496;-62
2023/01/17 12:31:59;;;;;;;;;15.25;12.25;;;;;6.41;73.75;98117.28;5103498;27;45854;-62
2023/01/17 12:34:46;;;;;;;;;15.50;11.75;;;;;6.38;72.98;98110.38;5104996;27;45411;-64
2023/01/17 12:37:23;;;;;;;;;12.25;10.50;;;;;6.38;73.46;98112.16;5103469;27;46147;-62
2023/01/17 12:40:16;;;;;;;;;11.00;10.00;;;;;6.34;73.77;98119.44;5098488;27;45540;-62
2023/01/17 12:42:51;;;;;;;;;9.00;8.25;;;;;6.23;73.12;98109.44;5102263;27;45951;-67
2023/01/17 12:45:30;;;;;;;;;14.25;11.75;;;;;6.23;73.47;98105.94;5108140;27;46372;-70
2023/01/17 12:48:20;;;;;;;;;11.75;10.00;;;;;6.25;73.91;98110.22;5104221;27;45924;-62
2023/01/17 12:51:01;;;;;;;;;11.50;11.50;;;;;6.27;73.74;98103.03;5101709;27;45621;-63
2023/01/17 12:53:51;;;;;;;;;14.50;10.50;;;;;6.25;73.02;98098.78;5105757;27;45587;-62
2023/01/17 12:56:32;;;;;;;;;10.25;9.25;;;;;6.26;74.02;98098.66;5101119;27;45440;-62
2023/01/17 12:59:22;;;;;;;;;10.50;9.75;;;;;6.29;73.45;98110.88;5106960;27;45888;-61
2023/01/17 13:01:56;;;;;;;;;11.25;11.00;;;;;6.32;74.00;98102.78;5107427;27;45607;-62
2023/01/17 13:04:46;;;;;;;;;10.75;10.75;;;;;6.35;73.19;98097.28;5099919;27;45626;-63
2023/01/17 13:07:26;;;;;;;;;11.00;10.50;;;;;6.32;73.60;98101.94;5103867;27;46123;-63
2023/01/17 13:09:59;;;;;;;;;14.25;10.25;;;;;6.31;73.68;98101.03;5108558;27;45465;-62
2023/01/17 13:12:31;;;;;;;;;15.50;10.00;;;;;6.32;73.63;98101.94;5104583;27;45626;-62
2023/01/17 13:14:57;;;;;;;;;14.50;10.25;;;;;6.38;73.70;98104.19;5114593;27;45470;-62
2023/01/17 13:17:43;;;;;;;;;8.25;7.00;;;;;6.41;73.57;98096.91;5104125;27;45438;-62
2023/01/17 13:20:32;;;;;;;;;10.00;9.25;;;;;6.42;73.40;98097.81;5108694;27;45791;-61
2023/01/17 13:23:11;;;;;;;;;16.00;12.25;;;;;6.44;73.07;98101.22;5114808;27;45438;-62
2023/01/17 13:25:49;;;;;;;;;15.25;12.00;;;;;6.45;73.45;98098.47;5116350;27;45499;-62
2023/01/17 13:28:17;;;;;;;;;11.50;9.25;;;;;6.46;73.00;98102.81;5105872;27;46366;-62
2023/01/17 13:31:20;;;;;;;;;10.50;10.50;;;;;6.44;72.76;98096.75;5101874;27;45444;-62
2023/01/17 13:34:13;;;;;;;;;13.50;9.50;;;;;6.43;73.42;98113.63;5106778;27;45485;-62
2023/01/17 13:37:01;;;;;;;;;14.00;14.00;;;;;6.47;73.41;98114.28;5104593;27;45526;-62
2023/01/17 13:39:57;;;;;;;;;13.50;10.50;;;;;6.49;73.15;98115.03;5099984;27;45432;-62
2023/01/17 13:42:26;;;;;;;;;14.00;11.00;;;;;6.51;73.36;98104.34;5097466;27;45642;-62
2023/01/17 13:44:52;;;;;;;;;15.25;14.00;;;;;6.53;73.66;98110.41;5105239;27;45531;-62
2023/01/17 13:47:17;;;;;;;;;15.75;12.50;;;;;6.54;72.97;98117.44;5102967;27;45492;-62
2023/01/17 13:49:48;;;;;;;;;16.33;13.33;;;;;6.55;73.37;98109.41;5102980;27;45623;-62
2023/01/17 13:52:19;;;;;;;;;13.75;11.00;;;;;6.58;73.36;98117.19;5102359;27;45539;-62
2023/01/17 13:54:56;;;;;;;;;13.25;10.50;;;;;6.57;72.60;98112.81;5113933;27;45518;-61
2023/01/17 13:57:24;;;;;;;;;15.25;13.25;;;;;6.60;73.91;98117.06;5103497;27;45562;-62
2023/01/17 13:59:53;;;;;;;;;14.75;12.75;;;;;6.56;73.15;98111.09;5108464;27;46054;-62
2023/01/17 14:02:31;;;;;;;;;17.75;10.00;;;;;6.56;73.12;98116.38;5102445;27;45779;-62
2023/01/17 14:05:34;;;;;;;;;14.25;12.00;;;;;6.55;73.36;98113.81;5106331;27;45410;-62
2023/01/17 14:08:14;;;;;;;;;12.50;12.50;;;;;6.54;72.85;98114.78;5103859;27;45676;-62
2023/01/17 14:10:47;;;;;;;;;10.50;7.75;;;;;6.53;72.64;98126.31;5101116;27;45698;-62
2023/01/17 14:13:31;;;;;;;;;14.50;11.75;;;;;6.49;73.38;98131.78;5103830;27;45733;-62
2023/01/17 14:15:57;;;;;;;;;12.00;11.50;;;;;6.43;72.77;98128.63;5103102;27;45573;-62
2023/01/17 14:18:42;;;;;;;;;15.50;11.75;;;;;6.39;72.55;98135.91;5114618;27;45765;-64
2023/01/17 14:21:19;;;;;;;;;13.75;11.25;;;;;6.41;72.77;98138.47;5115360;27;45596;-62
2023/01/17 14:24:02;;;;;;;;;21.00;14.50;;;;;6.43;72.95;98144.53;5113709;27;45733;-62
2023/01/17 14:26:41;;;;;;;;;13.00;12.25;;;;;6.42;73.66;98146.34;5104157;27;45728;-62
2023/01/17 14:29:41;;;;;;;;;14.00;9.75;;;;;6.48;73.39;98147.78;5107993;27;45375;-62
2023/01/17 14:32:20;;;;;;;;;9.25;7.00;;;;;6.51;72.82;98141.47;5084450;27;46054;-62
2023/01/17 14:34:49;;;;;;;;;12.25;11.50;;;;;6.51;72.75;98146.75;5107100;27;46088;-62
2023/01/17 14:37:21;;;;;;;;;12.25;8.25;;;;;6.53;72.72;98155.47;5098610;27;45692;-62
2023/01/17 14:39:49;;;;;;;;;10.00;10.00;;;;;6.56;73.12;98156.16;5115231;27;45377;-62
2023/01/17 14:42:18;;;;;;;;;10.00;9.75;;;;;6.62;72.77;98158.44;5112543;27;45451;-62
2023/01/17 14:44:50;;;;;;;;;11.50;10.25;;;;;6.65;72.71;98158.28;5117879;27;45473;-62
2023/01/17 14:47:16;;;;;;;;;9.25;8.50;;;;;6.69;72.54;98161.59;5116739;27;46434;-62
2023/01/17 14:49:42;;;;;;;;;5.75;5.25;;;;;6.70;72.88;98154.50;5117263;27;45532;-62
2023/01/17 14:52:17;;;;;;;;;12.25;11.75;;;;;6.70;72.54;98163.31;5117418;27;46739;-62
2023/01/17 14:54:50;;;;;;;;;14.00;8.25;;;;;6.73;72.78;98171.06;5119028;27;45709;-62
2023/01/17 14:57:28;;;;;;;;;11.25;8.25;;;;;6.76;72.29;98164.75;5101158;27;45393;-62
2023/01/17 15:00:18;;;;;;;;;10.50;10.00;;;;;6.84;72.77;98168.66;5118432;27;45429;-62
2023/01/17 15:02:46;;;;;;;;;7.00;7.00;;;;;6.89;72.28;98172.88;5110626;27;48422;-62
2023/01/17 15:05:17;;;;;;;;;9.75;7.50;;;;;6.88;72.48;98171.97;5098816;27;45341;-62
2023/01/17 15:07:45;;;;;;;;;14.50;11.00;;;;;6.89;71.88;98186.97;5104501;27;45446;-62
2023/01/17 15:10:14;;;;;;;;;11.75;10.00;;;;;6.88;72.14;98189.69;5107835;27;45337;-62
2023/01/17 15:12:45;;;;;;;;;13.75;10.00;;;;;6.90;71.50;98188.69;5114694;27;46935;-62
2023/01/17 15:15:29;;;;;;;;;11.75;10.00;;;;;6.90;71.88;98194.00;5111862;27;45783;-62
2023/01/17 15:18:28;;;;;;;;;14.00;14.00;;;;;6.89;72.35;98189.63;5106988;27;45830;-62
2023/01/17 15:21:00;;;;;;;;;11.75;11.75;;;;;6.96;71.68;98193.59;5089106;27;45378;-62
2023/01/17 15:23:37;;;;;;;;;15.00;12.00;;;;;7.00;71.98;98204.88;5109958;27;45871;-62
2023/01/17 15:26:05;;;;;;;;;16.75;13.25;;;;;6.97;71.25;98205.09;5108182;27;45869;-63
2023/01/17 15:28:32;;;;;;;;;10.75;10.75;;;;;6.97;71.72;98205.94;5091157;27;46040;-62
2023/01/17 15:31:07;;;;;;;;;14.50;12.00;;;;;6.95;71.92;98199.88;5099796;27;45447;-62
2023/01/17 15:33:35;;;;;;;;;11.00;11.00;;;;;6.95;72.15;98204.31;5100248;27;46364;-62
2023/01/17 15:36:26;;;;;;;;;15.00;11.25;;;;;6.94;72.29;98200.81;5100152;27;45790;-64
2023/01/17 15:38:59;;;;;;;;;15.00;11.25;;;;;6.98;71.60;98209.44;5101157;27;45502;-64
2023/01/17 15:41:30;;;;;;;;;12.00;12.00;;;;;6.90;71.88;98215.22;5098063;27;45527;-68
2023/01/17 15:43:57;;;;;;;;;14.75;13.25;;;;;6.77;71.90;98209.75;5099116;27;45859;-71
2023/01/17 15:46:28;;;;;;;;;14.00;11.75;;;;;6.79;72.02;98220.25;5107614;27;45271;-68
2023/01/17 15:49:06;;;;;;;;;11.50;10.00;;;;;6.78;72.82;98224.72;5100627;27;46109;-64
2023/01/17 15:51:36;;;;;;;;;14.50;10.75;;;;;6.80;72.76;98219.31;5100408;27;45554;-64
2023/01/17 15:54:24;;;;;;;;;12.00;12.00;;;;;6.80;71.91;98228.13;5114788;27;45335;-63
2023/01/17 15:57:00;;;;;;;;;11.50;10.00;;;;;6.78;72.34;98208.81;5118314;27;45332;-63
2023/01/17 15:59:36;;;;;;;;;15.50;11.75;;;;;6.83;72.31;98225.31;5120736;27;45405;-63
2023/01/17 16:02:01;;;;;;;;;10.25;6.50;;;;;6.71;71.47;98218.03;5101871;27;45579;-63
2023/01/17 16:04:32;;;;;;;;;13.50;10.75;;;;;6.69;72.36;98225.22;5104419;27;46005;-63
2023/01/17 16:07:34;;;;;;;;;13.75;12.00;;;;;6.70;72.58;98231.38;5119490;27;45444;-64
2023/01/17 16:10:20;;;;;;;;;10.75;10.75;;;;;6.71;71.65;98233.09;5031233;28;45502;-65
2023/01/17 16:12:48;;;;;;;;;11.50;10.50;;;;;6.71;72.22;98235.75;5108852;27;45590;-64
2023/01/17 16:15:14;;;;;;;;;15.25;12.75;;;;;6.74;72.30;98240.88;5116146;27;46403;-64
2023/01/17 16:17:44;;;;;;;;;9.25;6.25;;;;;6.75;72.44;98250.53;5118239;27;45800;-64
2023/01/17 16:20:33;;;;;;;;;12.50;10.50;;;;;6.71;71.71;98247.19;5109184;27;45431;-63
2023/01/17 16:22:58;;;;;;;;;16.00;8.50;;;;;6.72;72.51;98248.91;5073641;27;45510;-63
2023/01/17 16:25:24;;;;;;;;;12.25;9.25;;;;;6.68;72.30;98252.66;5120032;27;45848;-64
2023/01/17 16:27:50;;;;;;;;;11.50;10.50;;;;;6.74;72.82;98254.13;5115330;27;45764;-64
2023/01/17 16:30:20;;;;;;;;;8.75;6.75;;;;;6.77;72.37;98264.56;5108700;27;45558;-63
2023/01/17 16:32:47;;;;;;;;;10.00;7.00;;;;;6.78;72.44;98264.50;5110259;27;45731;-64
2023/01/17 16:35:23;;;;;;;;;6.50;5.50;;;;;6.83;71.87;98270.38;5111047;27;45875;-64
2023/01/17 16:37:54;;;;;;;;;8.50;8.50;;;;;6.85;71.84;98280.91;5108247;27;45884;-64
2023/01/17 16:40:21;;;;;;;;;11.75;9.00;;;;;6.84;71.89;98282.69;5115145;27;45433;-63
2023/01/17 16:42:47;;;;;;;;;3.00;1.00;;;;;6.78;71.36;98283.06;5105338;27;45843;-63
2023/01/17 16:45:13;;;;;;;;;9.50;6.25;;;;;6.70;71.51;98276.44;5104901;27;48008;-64
2023/01/17 16:47:40;;;;;;;;;8.50;7.25;;;;;6.75;71.74;98293.81;5100144;27;45685;-64
2023/01/17 16:50:06;;;;;;;;;16.00;12.00;;;;;6.79;72.15;98294.50;5104187;27;45349;-64
2023/01/17 16:52:32;;;;;;;;;8.00;7.00;;;;;6.74;71.07;98292.09;5117970;27;45392;-64
2023/01/17 16:54:57;;;;;;;;;10.25;9.50;;;;;6.74;71.73;98293.91;5112663;27;45472;-63
2023/01/17 16:57:22;;;;;;;;;9.75;7.50;;;;;6.73;71.93;98303.63;5115775;27;45599;-64
2023/01/17 16:59:48;;;;;;;;;7.00;7.00;;;;;6.68;70.87;98306.56;5112562;27;45453;-63
2023/01/17 17:02:13;;;;;;;;;10.00;9.00;;;;;6.60;70.90;98305.25;5106276;27;45374;-63
2023/01/17 17:04:40;;;;;;;;;9.25;8.25;;;;;6.53;70.99;98301.25;5106949;27;45473;-64
2023/01/17 17:07:06;;;;;;;;;8.00;6.00;;;;;6.57;71.45;98311.59;5117397;27;45777;-63
2023/01/17 17:09:31;;;;;;;;;9.50;7.00;;;;;6.61;71.91;98312.28;5101636;27;45767;-64
2023/01/17 17:11:56;;;;;;;;;6.00;5.00;;;;;6.61;71.70;98309.63;5114631;27;45684;-63
2023/01/17 17:14:22;;;;;;;;;6.25;6.00;;;;;6.59;71.54;98309.72;5113712;27;45410;-63
2023/01/17 17:16:50;;;;;;;;;9.00;7.00;;;;;6.59;71.54;98325.63;5114192;27;45454;-63
2023/01/17 17:19:16;;;;;;;;;9.00;6.00;;;;;6.48;71.05;98305.00;5102269;27;45463;-64
2023/01/17 17:21:41;;;;;;;;;10.00;7.50;;;;;6.55;70.81;98321.44;5106357;27;45611;-63
2023/01/17 17:24:11;;;;;;;;;8.75;5.50;;;;;6.57;71.16;98332.81;5105902;27;45315;-63
2023/01/17 17:26:38;;;;;;;;;9.75;9.75;;;;;6.56;71.18;98324.94;5107549;27;45605;-64
2023/01/17 17:29:04;;;;;;;;;11.75;9.50;;;;;6.58;71.49;98329.22;5108061;27;45713;-63
2023/01/17 17:31:30;;;;;;;;;8.25;7.00;;;;;6.62;71.37;98335.22;5115610;27;45470;-63
2023/01/17 17:33:59;;;;;;;;;10.50;7.00;;;;;6.63;70.65;98334.25;5109410;27;46021;-63
2023/01/17 17:36:25;;;;;;;;;8.25;8.25;;;;;6.63;71.11;98334.25;5114269;27;45796;-63
2023/01/17 17:38:53;;;;;;;;;7.25;6.25;;;;;6.63;70.70;98345.72;5111940;27;45467;-63
2023/01/17 17:41:22;;;;;;;;;5.75;5.00;;;;;6.60;70.43;98351.19;5108207;27;45389;-63
2023/01/17 17:43:47;;;;;;;;;10.00;7.25;;;;;6.58;70.89;98355.72;5120034;27;46362;-63
2023/01/17 17:46:13;;;;;;;;;9.25;7.50;;;;;6.55;71.17;98347.94;5119864;27;45415;-63
2023/01/17 17:48:39;;;;;;;;;6.75;6.75;;;;;6.62;70.44;98354.63;5114335;27;45382;-63
2023/01/17 17:51:05;;;;;;;;;11.00;7.75;;;;;6.64;71.15;98357.19;5105503;27;45550;-63
2023/01/17 17:53:31;;;;;;;;;7.50;6.25;;;;;6.65;71.14;98364.22;5106695;27;45437;-64
2023/01/17 17:56:02;;;;;;;;;13.50;9.00;;;;;6.64;70.96;98358.03;5116956;27;45667;-63
2023/01/17 17:58:28;;;;;;;;;10.00;10.00;;;;;6.69;70.73;98371.03;5109112;27;45431;-63
2023/01/17 18:00:53;;;;;;;;;10.25;8.25;;;;;6.73;69.96;98371.72;5104055;27;45537;-63
2023/01/17 18:03:18;;;;;;;;;7.50;6.75;;;;;6.71;70.38;98373.63;5107914;27;46207;-63
2023/01/17 18:05:45;;;;;;;;;10.00;10.00;;;;;6.71;70.24;98382.41;5117065;27;45374;-64
2023/01/17 18:08:11;;;;;;;;;7.00;7.00;;;;;6.68;70.11;98387.88;5117532;27;45452;-64
2023/01/17 18:10:37;;;;;;;;;5.00;5.00;;;;;6.66;69.63;98392.41;5105791;27;45680;-63
2023/01/17 18:13:02;;;;;;;;;10.00;7.00;;;;;6.62;69.65;98397.03;5118435;27;45383;-64
2023/01/17 18:15:28;;;;;;;;;10.50;7.00;;;;;6.58;69.78;98408.75;5100372;27;45361;-64
2023/01/17 18:17:54;;;;;;;;;11.00;8.75;;;;;6.54;69.61;98411.63;5101559;27;45415;-64
2023/01/17 18:20:20;;;;;;;;;10.50;10.50;;;;;6.55;70.27;98418.63;5105109;27;45554;-64
2023/01/17 18:22:45;;;;;;;;;12.50;9.50;;;;;6.55;69.88;98426.59;5111478;27;46672;-64
2023/01/17 18:25:11;;;;;;;;;8.50;8.50;;;;;6.56;70.02;98421.22;5098809;27;45377;-64
2023/01/17 18:27:38;;;;;;;;;8.25;6.25;;;;;6.48;69.47;98418.97;5104627;27;45259;-64
2023/01/17 18:30:04;;;;;;;;;8.00;5.00;;;;;6.40;68.97;98422.94;5098975;27;45416;-64
2023/01/17 18:32:29;;;;;;;;;12.50;10.00;;;;;6.40;69.59;98422.94;5109574;27;45538;-64
2023/01/17 18:34:55;;;;;;;;;6.50;6.00;;;;;6.38;69.55;98427.47;5118465;27;45521;-63
2023/01/17 18:37:21;;;;;;;;;13.25;10.75;;;;;6.32;70.03;98431.31;5111750;27;45479;-63
2023/01/17 18:39:47;;;;;;;;;12.25;9.25;;;;;6.30;69.46;98435.84;5105179;27;45681;-63
2023/01/17 18:42:13;;;;;;;;;15.25;15.25;;;;;6.25;69.63;98443.16;5114358;27;46112;-64
2023/01/17 18:44:38;;;;;;;;;10.00;9.00;;;;;6.27;69.38;98447.44;5111952;27;45469;-64
2023/01/17 18:47:04;;;;;;;;;18.00;11.75;;;;;6.32;69.14;98457.81;5111243;27;45424;-63
2023/01/17 18:49:31;;;;;;;;;10.25;9.25;;;;;6.32;69.50;98455.16;5107237;27;45545;-64
2023/01/17 18:51:57;;;;;;;;;11.00;10.75;;;;;6.35;69.67;98454.13;5110579;27;46375;-63
2023/01/17 18:54:22;;;;;;;;;15.00;10.25;;;;;6.38;70.04;98451.31;5098828;27;45305;-64